Airfield :
LOGIN :

Register | Disclaimer

   EN    FR    IT 

 










Legend :    VFR   Marginal VFR   IFR   Intensive IFR   Very Intensive IFR
Visi :
Ceiling :
>= 8 km
>= 3000ft
5 to 8 km
1000 to 3000 ft
1500m to 5 km
500 to 1000 ft
800 to 1500m
200 to 500 ft
< 800m
< 200 ft
Symbols :   Thunderstorms  Fog  Heavy snow  Heavy precipitations  Wind > 20 kt
SIGMETs :     Misc.  Thunderstorms  Icing  Turbulence  Mountain Waves  Volcanic Ashes






- Airport Elevation : 22 ft
- IATA code : SKG


LGTS - Thessaloniki

CURRENT METAR :
  • 071620Z 31007KT 280V360 9999 FEW030 30/21 Q1009 NOSIG

EXPIRED METARs :
  • 071550Z VRB02KT 9999 FEW030 31/19 Q1009 NOSIG
  • 071520Z VRB02KT 9999 FEW030 31/19 Q1009 NOSIG
  • 071450Z 10004KT 060V150 9999 FEW030 30/21 Q1009 NOSIG
  • 071420Z 20007KT 150V250 9999 -RA FEW020TCU SCT035 31/22 Q1009 RESHRA TEMPO 6000 SHRA
  • 071350Z 21010KT 9999 FEW020TCU SCT040 33/17 Q1009 NOSIG

TAF TAF LGTS
Valid from the 07 at 12:00 until the 08 at 12:00 UTC


071100Z 0712/0812 VRB03KT 9999 FEW020TCU
TEMPO 0712/0801 6000 SHRA
PROB40
TEMPO 0715/0801 4000 TSRA FEW015CB BKN025
BECMG 0801/0803 34015KT FEW030



MET'MAP, your aeronautical weather chart ! - Copyright ORBIFLY December 2007 - Disclaimer

ORBIFLY MET'MAP TEAM :

Programming & Development : Alexandra Zaïnal
Original concept : Baudouin d'Aumeries
Technical & hardware support : Manuel Goepfert
Assistance : Marc-Olivier Méhu




SOURCES & CREDITS :

   NOAA